sensor_id;sensor_type;location;lat;lon;timestamp;P1;durP1;ratioP1;P2;durP2;ratioP2
34960;SDS011;30789;52.030;7.110;2023-11-19T00:02:25;5.70;;;4.97;;
34960;SDS011;30789;52.030;7.110;2023-11-19T00:04:54;6.78;;;6.05;;
34960;SDS011;30789;52.030;7.110;2023-11-19T00:07:22;6.88;;;6.18;;
34960;SDS011;30789;52.030;7.110;2023-11-19T00:09:48;8.95;;;6.57;;
34960;SDS011;30789;52.030;7.110;2023-11-19T00:12:15;6.78;;;6.15;;
34960;SDS011;30789;52.030;7.110;2023-11-19T00:14:42;6.47;;;5.88;;
34960;SDS011;30789;52.030;7.110;2023-11-19T00:17:09;7.70;;;6.53;;
34960;SDS011;30789;52.030;7.110;2023-11-19T00:19:35;7.15;;;6.47;;
34960;SDS011;30789;52.030;7.110;2023-11-19T00:22:02;7.28;;;6.57;;
34960;SDS011;30789;52.030;7.110;2023-11-19T00:24:30;7.07;;;6.38;;
34960;SDS011;30789;52.030;7.110;2023-11-19T00:26:57;7.20;;;6.50;;
34960;SDS011;30789;52.030;7.110;2023-11-19T00:29:24;6.10;;;5.53;;
34960;SDS011;30789;52.030;7.110;2023-11-19T00:31:50;6.50;;;5.97;;
34960;SDS011;30789;52.030;7.110;2023-11-19T00:34:17;7.25;;;6.50;;
34960;SDS011;30789;52.030;7.110;2023-11-19T00:36:46;7.35;;;6.65;;
34960;SDS011;30789;52.030;7.110;2023-11-19T00:39:13;6.80;;;6.20;;
34960;SDS011;30789;52.030;7.110;2023-11-19T00:41:42;6.75;;;6.15;;
34960;SDS011;30789;52.030;7.110;2023-11-19T00:44:08;8.45;;;6.45;;
34960;SDS011;30789;52.030;7.110;2023-11-19T00:46:35;7.00;;;6.35;;
34960;SDS011;30789;52.030;7.110;2023-11-19T00:49:02;6.55;;;5.97;;
34960;SDS011;30789;52.030;7.110;2023-11-19T00:51:29;7.00;;;6.30;;
34960;SDS011;30789;52.030;7.110;2023-11-19T00:54:00;7.65;;;7.00;;
34960;SDS011;30789;52.030;7.110;2023-11-19T00:56:27;7.28;;;6.65;;
34960;SDS011;30789;52.030;7.110;2023-11-19T00:58:55;8.27;;;7.47;;
34960;SDS011;30789;52.030;7.110;2023-11-19T01:01:22;8.52;;;7.68;;
34960;SDS011;30789;52.030;7.110;2023-11-19T01:03:49;8.63;;;7.82;;
34960;SDS011;30789;52.030;7.110;2023-11-19T01:06:26;8.38;;;7.57;;
34960;SDS011;30789;52.030;7.110;2023-11-19T01:08:53;8.63;;;7.65;;
34960;SDS011;30789;52.030;7.110;2023-11-19T01:11:20;8.13;;;7.43;;
34960;SDS011;30789;52.030;7.110;2023-11-19T01:13:47;8.35;;;7.55;;
34960;SDS011;30789;52.030;7.110;2023-11-19T01:16:15;9.05;;;8.15;;
34960;SDS011;30789;52.030;7.110;2023-11-19T01:18:42;8.40;;;7.70;;
34960;SDS011;30789;52.030;7.110;2023-11-19T01:21:08;9.20;;;7.35;;
34960;SDS011;30789;52.030;7.110;2023-11-19T01:23:35;7.88;;;7.18;;
34960;SDS011;30789;52.030;7.110;2023-11-19T01:26:02;9.13;;;7.50;;
34960;SDS011;30789;52.030;7.110;2023-11-19T01:28:30;8.52;;;7.72;;
34960;SDS011;30789;52.030;7.110;2023-11-19T01:30:57;9.70;;;7.35;;
34960;SDS011;30789;52.030;7.110;2023-11-19T01:33:24;8.00;;;7.20;;
34960;SDS011;30789;52.030;7.110;2023-11-19T01:35:53;9.18;;;8.27;;
34960;SDS011;30789;52.030;7.110;2023-11-19T01:38:23;9.70;;;8.13;;
34960;SDS011;30789;52.030;7.110;2023-11-19T01:40:50;9.18;;;7.68;;
34960;SDS011;30789;52.030;7.110;2023-11-19T01:43:30;9.40;;;7.60;;
34960;SDS011;30789;52.030;7.110;2023-11-19T01:45:59;9.43;;;7.85;;
34960;SDS011;30789;52.030;7.110;2023-11-19T01:48:27;8.02;;;7.32;;
34960;SDS011;30789;52.030;7.110;2023-11-19T01:50:53;9.38;;;7.75;;
34960;SDS011;30789;52.030;7.110;2023-11-19T01:53:21;8.48;;;7.57;;
34960;SDS011;30789;52.030;7.110;2023-11-19T01:55:47;9.20;;;7.07;;
34960;SDS011;30789;52.030;7.110;2023-11-19T01:58:15;10.63;;;7.40;;
34960;SDS011;30789;52.030;7.110;2023-11-19T02:00:43;10.10;;;7.57;;
34960;SDS011;30789;52.030;7.110;2023-11-19T02:03:11;10.77;;;7.70;;
34960;SDS011;30789;52.030;7.110;2023-11-19T02:05:40;9.20;;;7.32;;
34960;SDS011;30789;52.030;7.110;2023-11-19T02:08:07;10.70;;;7.95;;
34960;SDS011;30789;52.030;7.110;2023-11-19T02:10:33;8.95;;;7.10;;
34960;SDS011;30789;52.030;7.110;2023-11-19T02:13:01;16.85;;;8.63;;
34960;SDS011;30789;52.030;7.110;2023-11-19T02:15:30;9.90;;;7.85;;
34960;SDS011;30789;52.030;7.110;2023-11-19T02:17:57;10.18;;;7.88;;
34960;SDS011;30789;52.030;7.110;2023-11-19T02:20:23;8.80;;;6.80;;
34960;SDS011;30789;52.030;7.110;2023-11-19T02:22:53;11.35;;;7.07;;
34960;SDS011;30789;52.030;7.110;2023-11-19T02:25:20;15.23;;;7.65;;
34960;SDS011;30789;52.030;7.110;2023-11-19T02:27:54;13.68;;;6.75;;
34960;SDS011;30789;52.030;7.110;2023-11-19T02:30:23;9.88;;;6.93;;
34960;SDS011;30789;52.030;7.110;2023-11-19T02:32:51;9.32;;;6.25;;
34960;SDS011;30789;52.030;7.110;2023-11-19T02:35:18;12.55;;;7.28;;
34960;SDS011;30789;52.030;7.110;2023-11-19T02:37:46;13.70;;;7.53;;
34960;SDS011;30789;52.030;7.110;2023-11-19T02:40:13;11.35;;;6.97;;
34960;SDS011;30789;52.030;7.110;2023-11-19T02:42:40;8.95;;;6.15;;
34960;SDS011;30789;52.030;7.110;2023-11-19T02:45:09;12.00;;;7.68;;
34960;SDS011;30789;52.030;7.110;2023-11-19T02:47:39;12.43;;;7.63;;
34960;SDS011;30789;52.030;7.110;2023-11-19T02:50:07;28.50;;;8.30;;
34960;SDS011;30789;52.030;7.110;2023-11-19T02:55:06;10.85;;;6.47;;
34960;SDS011;30789;52.030;7.110;2023-11-19T02:57:34;16.58;;;7.35;;
34960;SDS011;30789;52.030;7.110;2023-11-19T03:00:01;13.73;;;7.07;;
34960;SDS011;30789;52.030;7.110;2023-11-19T03:02:38;13.45;;;6.60;;
34960;SDS011;30789;52.030;7.110;2023-11-19T03:05:09;10.57;;;6.53;;
34960;SDS011;30789;52.030;7.110;2023-11-19T03:07:36;12.32;;;6.00;;
34960;SDS011;30789;52.030;7.110;2023-11-19T03:10:03;17.05;;;6.28;;
34960;SDS011;30789;52.030;7.110;2023-11-19T03:12:31;14.77;;;5.85;;
34960;SDS011;30789;52.030;7.110;2023-11-19T03:14:58;17.13;;;6.28;;
34960;SDS011;30789;52.030;7.110;2023-11-19T03:17:24;15.45;;;6.05;;
34960;SDS011;30789;52.030;7.110;2023-11-19T03:19:53;12.07;;;5.68;;
34960;SDS011;30789;52.030;7.110;2023-11-19T03:22:19;10.88;;;5.82;;
34960;SDS011;30789;52.030;7.110;2023-11-19T03:24:46;21.75;;;5.68;;
34960;SDS011;30789;52.030;7.110;2023-11-19T03:27:12;10.32;;;5.20;;
34960;SDS011;30789;52.030;7.110;2023-11-19T03:29:39;17.63;;;5.85;;
34960;SDS011;30789;52.030;7.110;2023-11-19T03:32:05;13.80;;;5.05;;
34960;SDS011;30789;52.030;7.110;2023-11-19T03:34:32;12.80;;;4.55;;
34960;SDS011;30789;52.030;7.110;2023-11-19T03:37:04;9.45;;;4.70;;
34960;SDS011;30789;52.030;7.110;2023-11-19T03:39:30;9.85;;;4.35;;
34960;SDS011;30789;52.030;7.110;2023-11-19T03:41:57;15.25;;;4.38;;
34960;SDS011;30789;52.030;7.110;2023-11-19T03:44:25;15.18;;;4.28;;
34960;SDS011;30789;52.030;7.110;2023-11-19T03:46:52;12.35;;;4.18;;
34960;SDS011;30789;52.030;7.110;2023-11-19T03:49:18;14.15;;;4.10;;
34960;SDS011;30789;52.030;7.110;2023-11-19T03:51:45;13.50;;;4.20;;
34960;SDS011;30789;52.030;7.110;2023-11-19T03:54:13;19.00;;;5.00;;
34960;SDS011;30789;52.030;7.110;2023-11-19T03:56:40;10.85;;;4.43;;
34960;SDS011;30789;52.030;7.110;2023-11-19T03:59:06;14.00;;;3.78;;
34960;SDS011;30789;52.030;7.110;2023-11-19T04:01:34;15.20;;;4.25;;
34960;SDS011;30789;52.030;7.110;2023-11-19T04:04:02;10.45;;;3.35;;
34960;SDS011;30789;52.030;7.110;2023-11-19T04:06:29;14.68;;;4.28;;
34960;SDS011;30789;52.030;7.110;2023-11-19T04:08:55;16.40;;;4.53;;
34960;SDS011;30789;52.030;7.110;2023-11-19T04:11:23;18.90;;;3.95;;
34960;SDS011;30789;52.030;7.110;2023-11-19T04:13:50;18.80;;;3.92;;
34960;SDS011;30789;52.030;7.110;2023-11-19T04:16:16;13.35;;;3.38;;
34960;SDS011;30789;52.030;7.110;2023-11-19T04:18:45;18.52;;;3.95;;
34960;SDS011;30789;52.030;7.110;2023-11-19T04:21:11;20.30;;;4.00;;
34960;SDS011;30789;52.030;7.110;2023-11-19T04:23:40;15.20;;;3.83;;
34960;SDS011;30789;52.030;7.110;2023-11-19T04:26:06;16.70;;;3.92;;
34960;SDS011;30789;52.030;7.110;2023-11-19T04:28:34;19.90;;;3.75;;
34960;SDS011;30789;52.030;7.110;2023-11-19T04:31:01;18.52;;;3.83;;
34960;SDS011;30789;52.030;7.110;2023-11-19T04:33:28;14.00;;;3.75;;
34960;SDS011;30789;52.030;7.110;2023-11-19T04:35:55;23.02;;;4.30;;
34960;SDS011;30789;52.030;7.110;2023-11-19T04:38:21;24.80;;;4.40;;
34960;SDS011;30789;52.030;7.110;2023-11-19T04:40:48;17.80;;;4.20;;
34960;SDS011;30789;52.030;7.110;2023-11-19T04:43:14;20.63;;;3.88;;
34960;SDS011;30789;52.030;7.110;2023-11-19T04:45:43;19.15;;;3.53;;
34960;SDS011;30789;52.030;7.110;2023-11-19T04:48:09;20.70;;;4.22;;
34960;SDS011;30789;52.030;7.110;2023-11-19T04:50:37;21.23;;;4.20;;
34960;SDS011;30789;52.030;7.110;2023-11-19T04:53:04;25.38;;;4.47;;
34960;SDS011;30789;52.030;7.110;2023-11-19T04:55:30;29.75;;;4.00;;
34960;SDS011;30789;52.030;7.110;2023-11-19T04:57:57;21.85;;;3.72;;
34960;SDS011;30789;52.030;7.110;2023-11-19T05:00:24;15.73;;;3.47;;
34960;SDS011;30789;52.030;7.110;2023-11-19T05:02:52;24.85;;;4.28;;
34960;SDS011;30789;52.030;7.110;2023-11-19T05:05:18;16.92;;;3.47;;
34960;SDS011;30789;52.030;7.110;2023-11-19T05:07:45;15.57;;;3.30;;
34960;SDS011;30789;52.030;7.110;2023-11-19T05:10:12;19.58;;;4.00;;
34960;SDS011;30789;52.030;7.110;2023-11-19T05:12:38;24.38;;;4.15;;
34960;SDS011;30789;52.030;7.110;2023-11-19T05:15:06;25.02;;;4.70;;
34960;SDS011;30789;52.030;7.110;2023-11-19T05:17:33;20.77;;;3.28;;
34960;SDS011;30789;52.030;7.110;2023-11-19T05:20:01;19.73;;;3.55;;
34960;SDS011;30789;52.030;7.110;2023-11-19T05:22:28;16.35;;;3.50;;
34960;SDS011;30789;52.030;7.110;2023-11-19T05:24:54;19.90;;;3.88;;
34960;SDS011;30789;52.030;7.110;2023-11-19T05:27:21;19.17;;;3.63;;
34960;SDS011;30789;52.030;7.110;2023-11-19T05:29:48;24.38;;;4.63;;
34960;SDS011;30789;52.030;7.110;2023-11-19T05:32:15;20.60;;;4.10;;
34960;SDS011;30789;52.030;7.110;2023-11-19T05:34:41;22.98;;;4.13;;
34960;SDS011;30789;52.030;7.110;2023-11-19T05:37:09;17.75;;;3.63;;
34960;SDS011;30789;52.030;7.110;2023-11-19T05:39:36;21.15;;;3.35;;
34960;SDS011;30789;52.030;7.110;2023-11-19T05:42:03;19.25;;;3.70;;
34960;SDS011;30789;52.030;7.110;2023-11-19T05:44:29;19.20;;;3.40;;
34960;SDS011;30789;52.030;7.110;2023-11-19T05:46:56;20.45;;;4.22;;
34960;SDS011;30789;52.030;7.110;2023-11-19T05:49:22;19.40;;;4.18;;
34960;SDS011;30789;52.030;7.110;2023-11-19T05:51:49;20.80;;;3.63;;
34960;SDS011;30789;52.030;7.110;2023-11-19T05:54:17;22.20;;;3.85;;
34960;SDS011;30789;52.030;7.110;2023-11-19T05:56:47;20.85;;;3.80;;
34960;SDS011;30789;52.030;7.110;2023-11-19T05:59:14;22.00;;;3.50;;
34960;SDS011;30789;52.030;7.110;2023-11-19T06:01:42;24.20;;;3.78;;
34960;SDS011;30789;52.030;7.110;2023-11-19T06:04:09;21.40;;;3.55;;
34960;SDS011;30789;52.030;7.110;2023-11-19T06:06:36;24.85;;;4.05;;
34960;SDS011;30789;52.030;7.110;2023-11-19T06:09:03;21.10;;;3.75;;
34960;SDS011;30789;52.030;7.110;2023-11-19T06:11:32;23.83;;;4.35;;
34960;SDS011;30789;52.030;7.110;2023-11-19T06:14:01;26.42;;;4.28;;
34960;SDS011;30789;52.030;7.110;2023-11-19T06:16:31;26.35;;;3.80;;
34960;SDS011;30789;52.030;7.110;2023-11-19T06:18:58;22.05;;;4.43;;
34960;SDS011;30789;52.030;7.110;2023-11-19T06:21:25;23.95;;;4.65;;
34960;SDS011;30789;52.030;7.110;2023-11-19T06:23:51;20.90;;;4.13;;
34960;SDS011;30789;52.030;7.110;2023-11-19T06:26:18;18.70;;;4.10;;
34960;SDS011;30789;52.030;7.110;2023-11-19T06:28:49;31.92;;;4.18;;
34960;SDS011;30789;52.030;7.110;2023-11-19T06:31:15;27.58;;;4.78;;
34960;SDS011;30789;52.030;7.110;2023-11-19T06:33:42;34.65;;;4.68;;
34960;SDS011;30789;52.030;7.110;2023-11-19T06:36:08;29.88;;;5.03;;
34960;SDS011;30789;52.030;7.110;2023-11-19T06:38:35;26.83;;;4.55;;
34960;SDS011;30789;52.030;7.110;2023-11-19T06:41:02;26.08;;;4.25;;
34960;SDS011;30789;52.030;7.110;2023-11-19T06:43:33;24.75;;;4.53;;
34960;SDS011;30789;52.030;7.110;2023-11-19T06:46:01;26.50;;;4.47;;
34960;SDS011;30789;52.030;7.110;2023-11-19T06:48:31;32.93;;;5.07;;
34960;SDS011;30789;52.030;7.110;2023-11-19T06:50:57;27.88;;;4.90;;
34960;SDS011;30789;52.030;7.110;2023-11-19T06:53:25;24.95;;;4.28;;
34960;SDS011;30789;52.030;7.110;2023-11-19T06:55:53;26.83;;;4.75;;
34960;SDS011;30789;52.030;7.110;2023-11-19T06:58:19;24.55;;;3.50;;
34960;SDS011;30789;52.030;7.110;2023-11-19T07:00:47;38.22;;;5.18;;
34960;SDS011;30789;52.030;7.110;2023-11-19T07:05:51;24.33;;;4.40;;
34960;SDS011;30789;52.030;7.110;2023-11-19T07:08:17;27.25;;;4.53;;
34960;SDS011;30789;52.030;7.110;2023-11-19T07:10:44;26.98;;;5.05;;
34960;SDS011;30789;52.030;7.110;2023-11-19T07:13:12;32.38;;;4.75;;
34960;SDS011;30789;52.030;7.110;2023-11-19T07:15:38;23.55;;;4.47;;
34960;SDS011;30789;52.030;7.110;2023-11-19T07:25:13;25.75;;;4.47;;
34960;SDS011;30789;52.030;7.110;2023-11-19T07:45:37;19.77;;;3.70;;
34960;SDS011;30789;52.030;7.110;2023-11-19T07:48:03;26.58;;;4.55;;
34960;SDS011;30789;52.030;7.110;2023-11-19T07:50:31;23.02;;;4.40;;
34960;SDS011;30789;52.030;7.110;2023-11-19T07:52:58;26.70;;;4.40;;
34960;SDS011;30789;52.030;7.110;2023-11-19T07:55:25;39.65;;;5.13;;
34960;SDS011;30789;52.030;7.110;2023-11-19T07:57:52;21.67;;;4.18;;
34960;SDS011;30789;52.030;7.110;2023-11-19T08:00:18;28.30;;;5.13;;
34960;SDS011;30789;52.030;7.110;2023-11-19T08:02:46;21.80;;;3.92;;
34960;SDS011;30789;52.030;7.110;2023-11-19T08:05:13;28.63;;;4.63;;
34960;SDS011;30789;52.030;7.110;2023-11-19T08:07:40;25.70;;;4.95;;
34960;SDS011;30789;52.030;7.110;2023-11-19T08:10:07;25.13;;;4.53;;
34960;SDS011;30789;52.030;7.110;2023-11-19T08:12:34;27.58;;;5.57;;
34960;SDS011;30789;52.030;7.110;2023-11-19T08:15:03;31.17;;;5.05;;
34960;SDS011;30789;52.030;7.110;2023-11-19T08:17:30;28.88;;;5.30;;
34960;SDS011;30789;52.030;7.110;2023-11-19T08:19:58;27.65;;;4.82;;
34960;SDS011;30789;52.030;7.110;2023-11-19T08:22:25;26.63;;;5.10;;
34960;SDS011;30789;52.030;7.110;2023-11-19T08:24:52;29.88;;;4.07;;
34960;SDS011;30789;52.030;7.110;2023-11-19T08:27:18;27.15;;;3.97;;
34960;SDS011;30789;52.030;7.110;2023-11-19T08:29:51;21.90;;;4.32;;
34960;SDS011;30789;52.030;7.110;2023-11-19T08:32:18;28.20;;;4.85;;
34960;SDS011;30789;52.030;7.110;2023-11-19T08:34:44;22.65;;;4.15;;
34960;SDS011;30789;52.030;7.110;2023-11-19T08:37:13;33.35;;;4.60;;
34960;SDS011;30789;52.030;7.110;2023-11-19T08:42:11;24.27;;;4.38;;
34960;SDS011;30789;52.030;7.110;2023-11-19T08:44:38;29.05;;;4.68;;
34960;SDS011;30789;52.030;7.110;2023-11-19T08:47:08;30.95;;;5.05;;
34960;SDS011;30789;52.030;7.110;2023-11-19T08:49:35;30.13;;;4.95;;
34960;SDS011;30789;52.030;7.110;2023-11-19T08:52:02;29.67;;;4.97;;
34960;SDS011;30789;52.030;7.110;2023-11-19T08:54:30;27.42;;;4.97;;
34960;SDS011;30789;52.030;7.110;2023-11-19T08:56:58;38.38;;;5.20;;
34960;SDS011;30789;52.030;7.110;2023-11-19T08:59:24;32.20;;;5.40;;
34960;SDS011;30789;52.030;7.110;2023-11-19T09:01:51;35.00;;;5.03;;
34960;SDS011;30789;52.030;7.110;2023-11-19T09:04:17;35.33;;;5.50;;
34960;SDS011;30789;52.030;7.110;2023-11-19T09:06:47;28.92;;;5.00;;
34960;SDS011;30789;52.030;7.110;2023-11-19T09:09:15;26.23;;;4.78;;
34960;SDS011;30789;52.030;7.110;2023-11-19T09:11:43;25.00;;;5.05;;
34960;SDS011;30789;52.030;7.110;2023-11-19T09:14:10;34.22;;;5.45;;
34960;SDS011;30789;52.030;7.110;2023-11-19T09:16:36;24.73;;;4.72;;
34960;SDS011;30789;52.030;7.110;2023-11-19T09:19:03;28.23;;;4.97;;
34960;SDS011;30789;52.030;7.110;2023-11-19T09:21:30;27.85;;;4.22;;
34960;SDS011;30789;52.030;7.110;2023-11-19T09:23:57;33.88;;;5.28;;
34960;SDS011;30789;52.030;7.110;2023-11-19T09:26:23;24.27;;;4.75;;
34960;SDS011;30789;52.030;7.110;2023-11-19T09:28:51;24.95;;;4.30;;
34960;SDS011;30789;52.030;7.110;2023-11-19T09:31:18;22.10;;;4.65;;
34960;SDS011;30789;52.030;7.110;2023-11-19T09:33:48;33.40;;;5.68;;
34960;SDS011;30789;52.030;7.110;2023-11-19T09:36:17;26.38;;;5.05;;
34960;SDS011;30789;52.030;7.110;2023-11-19T09:38:44;20.45;;;4.90;;
34960;SDS011;30789;52.030;7.110;2023-11-19T09:41:11;32.47;;;5.30;;
34960;SDS011;30789;52.030;7.110;2023-11-19T09:43:38;30.25;;;5.05;;
34960;SDS011;30789;52.030;7.110;2023-11-19T09:46:09;24.48;;;4.68;;
34960;SDS011;30789;52.030;7.110;2023-11-19T09:48:37;26.73;;;5.07;;
34960;SDS011;30789;52.030;7.110;2023-11-19T09:51:05;31.73;;;5.47;;
34960;SDS011;30789;52.030;7.110;2023-11-19T09:53:32;28.52;;;5.00;;
34960;SDS011;30789;52.030;7.110;2023-11-19T09:56:03;23.52;;;5.28;;
34960;SDS011;30789;52.030;7.110;2023-11-19T09:58:31;31.38;;;4.80;;
34960;SDS011;30789;52.030;7.110;2023-11-19T10:00:58;30.35;;;5.40;;
34960;SDS011;30789;52.030;7.110;2023-11-19T10:03:26;34.72;;;5.28;;
34960;SDS011;30789;52.030;7.110;2023-11-19T10:08:23;30.08;;;4.35;;
34960;SDS011;30789;52.030;7.110;2023-11-19T10:10:50;29.52;;;5.65;;
34960;SDS011;30789;52.030;7.110;2023-11-19T10:13:16;34.28;;;5.15;;
34960;SDS011;30789;52.030;7.110;2023-11-19T10:15:43;24.58;;;4.72;;
34960;SDS011;30789;52.030;7.110;2023-11-19T10:18:10;23.75;;;5.32;;
34960;SDS011;30789;52.030;7.110;2023-11-19T10:20:40;30.42;;;5.55;;
34960;SDS011;30789;52.030;7.110;2023-11-19T10:23:11;30.55;;;5.50;;
34960;SDS011;30789;52.030;7.110;2023-11-19T10:25:37;31.10;;;5.63;;
34960;SDS011;30789;52.030;7.110;2023-11-19T10:28:04;31.80;;;5.90;;
34960;SDS011;30789;52.030;7.110;2023-11-19T10:30:30;28.83;;;6.22;;
34960;SDS011;30789;52.030;7.110;2023-11-19T10:33:03;31.20;;;5.55;;
34960;SDS011;30789;52.030;7.110;2023-11-19T10:35:30;26.98;;;5.22;;
34960;SDS011;30789;52.030;7.110;2023-11-19T10:38:02;32.38;;;5.40;;
34960;SDS011;30789;52.030;7.110;2023-11-19T10:40:40;33.80;;;5.63;;
34960;SDS011;30789;52.030;7.110;2023-11-19T10:43:07;31.35;;;6.07;;
34960;SDS011;30789;52.030;7.110;2023-11-19T10:45:34;31.13;;;5.75;;
34960;SDS011;30789;52.030;7.110;2023-11-19T10:48:00;24.70;;;5.88;;
34960;SDS011;30789;52.030;7.110;2023-11-19T10:50:29;32.58;;;5.32;;
34960;SDS011;30789;52.030;7.110;2023-11-19T10:52:56;24.40;;;4.70;;
34960;SDS011;30789;52.030;7.110;2023-11-19T10:55:26;24.83;;;4.88;;
34960;SDS011;30789;52.030;7.110;2023-11-19T10:57:54;20.45;;;4.30;;
34960;SDS011;30789;52.030;7.110;2023-11-19T11:00:25;28.67;;;5.15;;
34960;SDS011;30789;52.030;7.110;2023-11-19T11:02:55;25.60;;;4.88;;
34960;SDS011;30789;52.030;7.110;2023-11-19T11:05:25;30.85;;;5.38;;
34960;SDS011;30789;52.030;7.110;2023-11-19T11:07:54;29.20;;;5.43;;
34960;SDS011;30789;52.030;7.110;2023-11-19T11:10:21;31.20;;;5.57;;
34960;SDS011;30789;52.030;7.110;2023-11-19T11:12:54;30.85;;;5.45;;
34960;SDS011;30789;52.030;7.110;2023-11-19T11:15:25;27.42;;;4.88;;
34960;SDS011;30789;52.030;7.110;2023-11-19T11:17:53;30.30;;;5.40;;
34960;SDS011;30789;52.030;7.110;2023-11-19T11:20:26;25.25;;;4.85;;
34960;SDS011;30789;52.030;7.110;2023-11-19T11:22:57;20.38;;;5.43;;
34960;SDS011;30789;52.030;7.110;2023-11-19T11:25:40;25.80;;;5.07;;
34960;SDS011;30789;52.030;7.110;2023-11-19T11:28:21;35.72;;;6.25;;
34960;SDS011;30789;52.030;7.110;2023-11-19T11:31:01;31.27;;;6.32;;
34960;SDS011;30789;52.030;7.110;2023-11-19T11:33:41;25.27;;;5.53;;
34960;SDS011;30789;52.030;7.110;2023-11-19T11:36:19;32.33;;;6.15;;
34960;SDS011;30789;52.030;7.110;2023-11-19T11:38:49;25.67;;;4.65;;
34960;SDS011;30789;52.030;7.110;2023-11-19T11:41:18;27.77;;;4.93;;
34960;SDS011;30789;52.030;7.110;2023-11-19T11:43:47;24.25;;;5.25;;
34960;SDS011;30789;52.030;7.110;2023-11-19T11:52:01;25.75;;;4.97;;
34960;SDS011;30789;52.030;7.110;2023-11-19T11:54:32;21.52;;;5.05;;
34960;SDS011;30789;52.030;7.110;2023-11-19T11:57:06;23.20;;;4.70;;
34960;SDS011;30789;52.030;7.110;2023-11-19T11:59:37;29.45;;;4.85;;
34960;SDS011;30789;52.030;7.110;2023-11-19T12:02:09;31.55;;;5.07;;
34960;SDS011;30789;52.030;7.110;2023-11-19T12:04:36;23.63;;;4.57;;
34960;SDS011;30789;52.030;7.110;2023-11-19T12:07:04;23.25;;;4.03;;
34960;SDS011;30789;52.030;7.110;2023-11-19T12:09:31;28.70;;;3.72;;
34960;SDS011;30789;52.030;7.110;2023-11-19T12:12:08;18.45;;;4.22;;
34960;SDS011;30789;52.030;7.110;2023-11-19T12:17:42;22.52;;;4.30;;
34960;SDS011;30789;52.030;7.110;2023-11-19T12:20:14;23.85;;;4.78;;
34960;SDS011;30789;52.030;7.110;2023-11-19T12:22:42;17.90;;;3.92;;
34960;SDS011;30789;52.030;7.110;2023-11-19T12:27:43;25.58;;;4.20;;
34960;SDS011;30789;52.030;7.110;2023-11-19T12:30:11;20.42;;;4.20;;
34960;SDS011;30789;52.030;7.110;2023-11-19T12:32:39;31.08;;;4.68;;
34960;SDS011;30789;52.030;7.110;2023-11-19T12:35:06;18.42;;;4.03;;
34960;SDS011;30789;52.030;7.110;2023-11-19T12:37:38;18.27;;;4.47;;
34960;SDS011;30789;52.030;7.110;2023-11-19T12:40:10;31.15;;;5.20;;
34960;SDS011;30789;52.030;7.110;2023-11-19T12:42:38;26.02;;;5.22;;
34960;SDS011;30789;52.030;7.110;2023-11-19T12:45:18;22.40;;;3.95;;
34960;SDS011;30789;52.030;7.110;2023-11-19T12:47:46;28.45;;;4.75;;
34960;SDS011;30789;52.030;7.110;2023-11-19T12:50:14;22.77;;;4.75;;
34960;SDS011;30789;52.030;7.110;2023-11-19T12:52:43;22.55;;;4.35;;
34960;SDS011;30789;52.030;7.110;2023-11-19T12:55:25;22.48;;;4.25;;
34960;SDS011;30789;52.030;7.110;2023-11-19T12:57:53;22.10;;;4.75;;
34960;SDS011;30789;52.030;7.110;2023-11-19T13:00:22;22.05;;;4.18;;
34960;SDS011;30789;52.030;7.110;2023-11-19T13:02:51;22.33;;;4.93;;
34960;SDS011;30789;52.030;7.110;2023-11-19T13:05:22;20.77;;;4.72;;
34960;SDS011;30789;52.030;7.110;2023-11-19T13:07:51;30.05;;;4.75;;
34960;SDS011;30789;52.030;7.110;2023-11-19T13:10:18;21.02;;;4.30;;
34960;SDS011;30789;52.030;7.110;2023-11-19T13:12:47;20.83;;;5.00;;
34960;SDS011;30789;52.030;7.110;2023-11-19T13:15:27;22.13;;;5.22;;
34960;SDS011;30789;52.030;7.110;2023-11-19T13:17:54;22.77;;;4.78;;
34960;SDS011;30789;52.030;7.110;2023-11-19T13:20:20;21.35;;;4.32;;
34960;SDS011;30789;52.030;7.110;2023-11-19T13:22:54;21.88;;;4.50;;
34960;SDS011;30789;52.030;7.110;2023-11-19T13:25:24;26.10;;;5.25;;
34960;SDS011;30789;52.030;7.110;2023-11-19T13:27:51;28.05;;;8.43;;
34960;SDS011;30789;52.030;7.110;2023-11-19T13:30:18;30.52;;;8.20;;
34960;SDS011;30789;52.030;7.110;2023-11-19T13:32:46;29.67;;;8.45;;
34960;SDS011;30789;52.030;7.110;2023-11-19T13:35:12;26.45;;;9.70;;
34960;SDS011;30789;52.030;7.110;2023-11-19T13:37:39;23.73;;;4.95;;
34960;SDS011;30789;52.030;7.110;2023-11-19T13:40:06;21.83;;;4.30;;
34960;SDS011;30789;52.030;7.110;2023-11-19T13:42:35;17.25;;;4.25;;
34960;SDS011;30789;52.030;7.110;2023-11-19T13:45:02;19.42;;;3.72;;
34960;SDS011;30789;52.030;7.110;2023-11-19T13:47:29;20.92;;;5.15;;
34960;SDS011;30789;52.030;7.110;2023-11-19T13:49:57;19.75;;;4.00;;
34960;SDS011;30789;52.030;7.110;2023-11-19T13:52:25;22.25;;;4.30;;
34960;SDS011;30789;52.030;7.110;2023-11-19T13:54:51;21.88;;;4.82;;
34960;SDS011;30789;52.030;7.110;2023-11-19T13:57:18;22.58;;;3.60;;
34960;SDS011;30789;52.030;7.110;2023-11-19T13:59:44;23.40;;;4.20;;
34960;SDS011;30789;52.030;7.110;2023-11-19T14:02:11;16.38;;;3.22;;
34960;SDS011;30789;52.030;7.110;2023-11-19T14:04:38;17.23;;;5.43;;
34960;SDS011;30789;52.030;7.110;2023-11-19T14:07:06;33.03;;;4.57;;
34960;SDS011;30789;52.030;7.110;2023-11-19T14:09:32;21.35;;;3.92;;
34960;SDS011;30789;52.030;7.110;2023-11-19T14:12:00;13.38;;;3.17;;
34960;SDS011;30789;52.030;7.110;2023-11-19T14:14:27;18.85;;;4.35;;
34960;SDS011;30789;52.030;7.110;2023-11-19T14:16:53;18.15;;;3.92;;
34960;SDS011;30789;52.030;7.110;2023-11-19T14:19:20;19.10;;;4.32;;
34960;SDS011;30789;52.030;7.110;2023-11-19T14:21:46;16.45;;;3.47;;
34960;SDS011;30789;52.030;7.110;2023-11-19T14:24:14;17.25;;;3.67;;
34960;SDS011;30789;52.030;7.110;2023-11-19T14:26:41;15.50;;;3.53;;
34960;SDS011;30789;52.030;7.110;2023-11-19T14:29:07;16.75;;;3.10;;
34960;SDS011;30789;52.030;7.110;2023-11-19T14:31:34;25.60;;;4.30;;
34960;SDS011;30789;52.030;7.110;2023-11-19T14:34:00;14.52;;;3.60;;
34960;SDS011;30789;52.030;7.110;2023-11-19T14:36:27;19.88;;;3.97;;
34960;SDS011;30789;52.030;7.110;2023-11-19T14:38:54;18.05;;;3.83;;
34960;SDS011;30789;52.030;7.110;2023-11-19T14:41:22;19.75;;;3.70;;
34960;SDS011;30789;52.030;7.110;2023-11-19T14:43:48;15.35;;;4.82;;
34960;SDS011;30789;52.030;7.110;2023-11-19T14:46:15;14.52;;;4.10;;
34960;SDS011;30789;52.030;7.110;2023-11-19T14:48:41;15.45;;;3.72;;
34960;SDS011;30789;52.030;7.110;2023-11-19T14:51:08;24.02;;;4.20;;
34960;SDS011;30789;52.030;7.110;2023-11-19T14:53:35;20.75;;;4.63;;
34960;SDS011;30789;52.030;7.110;2023-11-19T14:56:01;21.35;;;4.65;;
34960;SDS011;30789;52.030;7.110;2023-11-19T14:58:31;12.70;;;3.15;;
34960;SDS011;30789;52.030;7.110;2023-11-19T15:00:57;14.77;;;2.83;;
34960;SDS011;30789;52.030;7.110;2023-11-19T15:03:24;15.75;;;3.30;;
34960;SDS011;30789;52.030;7.110;2023-11-19T15:05:51;14.50;;;3.38;;
34960;SDS011;30789;52.030;7.110;2023-11-19T15:08:17;11.30;;;3.47;;
34960;SDS011;30789;52.030;7.110;2023-11-19T15:10:44;16.30;;;3.50;;
34960;SDS011;30789;52.030;7.110;2023-11-19T15:13:11;13.68;;;3.58;;
34960;SDS011;30789;52.030;7.110;2023-11-19T15:15:39;19.00;;;4.60;;
34960;SDS011;30789;52.030;7.110;2023-11-19T15:18:07;12.02;;;3.15;;
34960;SDS011;30789;52.030;7.110;2023-11-19T15:20:34;11.30;;;3.30;;
34960;SDS011;30789;52.030;7.110;2023-11-19T15:23:02;19.23;;;3.08;;
34960;SDS011;30789;52.030;7.110;2023-11-19T15:25:29;20.45;;;4.07;;
34960;SDS011;30789;52.030;7.110;2023-11-19T15:27:55;20.08;;;3.83;;